Time;durP1;ratioP1;P1;durP2;ratioP2;P2;SDS_P1;SDS_P2;PMS_P1;PMS_P2;Temp;Humidity;BMP_temperature;BMP_pressure;BME280_temperature;BME280_humidity;BME280_pressure;Samples;Min_cycle;Max_cycle;Signal;HPM_P1;HPM_P2
2022/05/20 20:53:46;;;;;;;1.10;1.10;;;;;;;12.68;54.43;92932.34;6141176;22;1600577;-80
2022/05/20 20:56:14;;;;;;;4.65;1.70;;;;;;;12.63;54.34;92933.47;6185876;22;20508;-80
2022/05/20 20:58:41;;;;;;;1.33;1.23;;;;;;;13.02;55.15;93009.41;6186229;22;20408;-79
2022/05/20 21:01:08;;;;;;;3.23;2.87;;;;;;;12.62;56.10;92955.44;6185936;22;20444;-80
2022/05/20 21:03:35;;;;;;;4.10;3.67;;;;;;;12.78;56.01;92988.56;6187901;22;20147;-79
2022/05/20 21:08:52;;;;;;;3.45;2.40;;;;;;;12.64;57.30;92988.34;6185922;23;20251;-80
2022/05/20 21:11:19;;;;;;;3.63;2.75;;;;;;;12.53;57.35;92960.13;6185982;22;20409;-79
2022/05/20 21:13:47;;;;;;;2.70;2.50;;;;;;;12.58;57.46;92966.63;6185515;22;20189;-79
2022/05/20 21:16:14;;;;;;;3.63;2.20;;;;;;;12.09;56.80;92897.03;6185661;22;20459;-78
2022/05/20 21:18:42;;;;;;;2.90;2.30;;;;;;;12.31;56.95;92942.50;6185752;22;20536;-79
2022/05/20 21:21:09;;;;;;;1.90;1.80;;;;;;;12.05;56.68;92909.00;6185701;22;20463;-81
2022/05/20 21:23:37;;;;;;;1.80;1.70;;;;;;;12.10;57.17;92933.31;6185806;22;20507;-79
2022/05/20 21:26:06;;;;;;;2.80;2.20;;;;;;;12.24;57.91;92962.22;6185854;22;20388;-79
2022/05/20 21:28:34;;;;;;;4.87;1.93;;;;;;;11.83;58.15;92899.88;6186253;22;20518;-79
2022/05/20 21:31:03;;;;;;;3.83;2.53;;;;;;;12.12;57.87;92960.22;6185514;22;20485;-78
2022/05/20 21:33:30;;;;;;;2.40;2.00;;;;;;;12.05;58.42;92951.25;6187654;23;20467;-80
2022/05/20 21:35:57;;;;;;;1.40;1.30;;;;;;;11.73;59.17;92904.50;6185940;22;20534;-78
2022/05/20 21:38:25;;;;;;;1.53;1.43;;;;;;;11.78;58.85;92907.66;6185390;22;20523;-79
2022/05/20 21:40:52;;;;;;;2.20;2.10;;;;;;;11.62;59.42;92904.09;6187473;22;20593;-79
2022/05/20 21:43:21;;;;;;;3.50;2.20;;;;;;;11.53;60.05;92922.22;6185446;22;20519;-79
2022/05/20 21:45:50;;;;;;;2.67;2.03;;;;;;;11.61;60.54;92951.34;6185580;22;20177;-79
2022/05/20 21:48:17;;;;;;;2.00;1.90;;;;;;;11.33;60.97;92899.41;6187474;22;20492;-80
2022/05/20 21:50:48;;;;;;;1.67;1.57;;;;;;;11.45;61.34;92934.34;6186147;22;20550;-81
2022/05/20 21:53:16;;;;;;;1.27;1.20;;;;;;;11.23;62.05;92907.41;6185202;22;20591;-79
2022/05/20 21:55:44;;;;;;;2.07;1.97;;;;;;;11.67;62.17;92979.81;6185427;22;20526;-79
2022/05/20 21:58:11;;;;;;;2.80;2.60;;;;;;;11.47;62.62;92947.75;6185352;22;20158;-80
2022/05/20 22:09:09;;;;;;;1.70;1.63;;;;;;;11.69;61.43;92918.16;6185689;23;20569;-80
2022/05/20 22:11:38;;;;;;;1.40;1.40;;;;;;;11.57;61.41;92893.34;6185427;22;20455;-80
2022/05/20 22:14:05;;;;;;;1.47;1.37;;;;;;;11.45;60.87;92891.34;6185630;23;20516;-80
2022/05/20 22:16:35;;;;;;;2.63;1.40;;;;;;;11.74;61.72;92945.81;6185800;22;20174;-79
2022/05/20 22:19:02;;;;;;;1.33;1.20;;;;;;;11.70;62.39;92937.50;6185778;22;20504;-80
2022/05/20 22:21:31;;;;;;;1.40;1.30;;;;;;;11.71;62.51;92953.53;6186578;22;20455;-80
2022/05/20 22:23:58;;;;;;;1.50;1.40;;;;;;;11.54;62.65;92937.34;6186681;22;20550;-78
2022/05/20 22:26:27;;;;;;;3.70;2.20;;;;;;;11.28;63.05;92881.91;6189327;22;20496;-80
2022/05/20 22:28:54;;;;;;;1.53;1.43;;;;;;;11.78;62.70;92977.72;6189643;22;20158;-81
2022/05/20 22:31:22;;;;;;;2.83;1.30;;;;;;;11.26;63.15;92876.13;6192396;22;20394;-80
2022/05/20 22:33:51;;;;;;;1.33;1.23;;;;;;;11.29;63.55;92888.63;6195188;22;20231;-81
2022/05/20 22:36:18;;;;;;;4.37;1.87;;;;;;;11.32;63.58;92903.69;6195702;22;20464;-80
2022/05/20 22:38:45;;;;;;;1.67;1.57;;;;;;;11.08;63.66;92862.50;6195419;22;20457;-79
2022/05/20 22:41:13;;;;;;;1.50;1.20;;;;;;;11.59;63.84;92954.84;6194778;22;20181;-79
2022/05/20 22:43:40;;;;;;;1.17;1.07;;;;;;;11.34;64.10;92917.06;6194501;22;20146;-79
2022/05/20 22:46:07;;;;;;;1.60;1.27;;;;;;;11.42;64.37;92929.41;6193467;22;20287;-79
2022/05/20 22:48:34;;;;;;;1.83;1.37;;;;;;;11.30;63.54;92887.75;6191898;23;20538;-80
2022/05/20 22:51:04;;;;;;;2.60;1.33;;;;;;;11.29;63.66;92890.31;6185036;22;20654;-82
2022/05/20 22:53:32;;;;;;;5.57;1.87;;;;;;;11.22;63.71;92874.56;6185041;22;20437;-81
2022/05/20 22:56:09;;;;;;;1.37;1.27;;;;;;;10.98;63.27;92862.94;6185298;22;20555;-81
2022/05/20 22:58:39;;;;;;;0.97;0.97;;;;;;;11.08;63.36;92894.56;6185096;22;20402;-80
2022/05/20 23:01:09;;;;;;;0.77;0.77;;;;;;;11.39;64.10;92945.53;6185120;22;20391;-80
2022/05/20 23:03:36;;;;;;;1.23;1.13;;;;;;;10.85;63.34;92857.56;6185230;22;20451;-81
2022/05/20 23:06:05;;;;;;;1.10;1.10;;;;;;;11.29;63.46;92918.97;6184924;22;20417;-80
2022/05/20 23:08:34;;;;;;;1.33;0.80;;;;;;;11.36;64.32;92930.50;6184929;22;20467;-80
2022/05/20 23:11:01;;;;;;;1.73;1.23;;;;;;;10.91;64.16;92862.38;6184905;22;20599;-79
2022/05/20 23:13:29;;;;;;;2.57;2.40;;;;;;;10.72;64.97;92851.34;6185223;22;20495;-79
2022/05/20 23:15:57;;;;;;;2.63;2.20;;;;;;;10.50;65.46;92828.63;6185352;22;20523;-80
2022/05/20 23:18:26;;;;;;;4.47;2.50;;;;;;;11.00;65.78;92894.03;6185400;22;20504;-80
2022/05/20 23:20:53;;;;;;;2.60;1.90;;;;;;;11.08;65.89;92866.75;6185562;22;20524;-79
2022/05/20 23:23:24;;;;;;;1.90;1.40;;;;;;;10.80;65.59;92849.34;6184895;22;20163;-80
2022/05/20 23:25:56;;;;;;;2.13;1.90;;;;;;;10.64;65.94;92823.88;6184944;22;20433;-79
2022/05/20 23:28:28;;;;;;;3.43;2.30;;;;;;;10.92;66.66;92864.00;6184990;22;20573;-80
2022/05/20 23:30:56;;;;;;;3.07;2.17;;;;;;;10.95;65.69;92837.78;6184803;22;20522;-80
2022/05/20 23:33:24;;;;;;;5.70;2.47;;;;;;;11.49;65.77;92903.78;6186257;22;20159;-79
2022/05/20 23:35:51;;;;;;;2.33;2.13;;;;;;;10.70;66.39;92813.47;6184749;22;20382;-79
2022/05/20 23:38:18;;;;;;;2.73;1.50;;;;;;;11.15;66.12;92896.75;6186388;22;20438;-79
2022/05/20 23:40:48;;;;;;;2.07;1.90;;;;;;;10.67;66.79;92823.72;6186880;22;20566;-79
2022/05/20 23:43:17;;;;;;;3.77;1.43;;;;;;;11.02;66.54;92905.72;6186735;22;20456;-81
2022/05/20 23:45:45;;;;;;;1.87;1.60;;;;;;;11.02;67.12;92903.22;6187057;22;20479;-80
2022/05/20 23:48:14;;;;;;;4.43;2.20;;;;;;;10.72;67.05;92823.53;6186461;22;20528;-80
2022/05/20 23:50:42;;;;;;;2.30;2.10;;;;;;;10.93;66.83;92837.03;6186763;22;20621;-81
2022/05/20 23:53:09;;;;;;;2.77;2.10;;;;;;;10.80;67.33;92829.13;6186556;22;20629;-79
2022/05/20 23:58:23;;;;;;;6.33;2.77;;;;;;;10.86;67.95;92876.06;6186747;23;20420;-80
